Terminal Aerodrome Forecast
Issued by NWS

Home | Current Version | Previous Version | Text Only | Print | Product List | Glossary On
Versions: 1 2 3 4 5 6 7 8 9 10 11 12 13 14
000
FTUS43 KGRR 270530
TAFJXN
TAF
KJXN 270530Z 2706/2806 VRB03KT P6SM BKN050
     FM271200 VRB03KT 5SM BR OVC035
     FM271500 01006KT P6SM BKN035
     FM271800 01008KT P6SM VCSH BKN040
     FM280000 04005KT P6SM BKN100=

USA.gov is the U.S. government's official web portal to all federal, state and local government web resources and services.